עמוד ראשי
METAR-TAF:

METAR-TAF

שדות תעופה :

אריקה, צ'ילה

קו רוחב: 18-20S, קו אורך: 070-20W, גובה: 58מטר

תצפית מזג אוויר נוכחית

הדו"ח נערך לפני 54דקות, בשעה 10:00 UTC
רוח רגועה
טמפרטורת 17 צלסיוס
לחות 72%
לחץ 1014 hPa
ראות 10 קילומטר או יותר
מעונן בגובה 2200רגל

METAR: SCAR 241000Z 00000KT 9999 OVC022 17/12 Q1014

זמן: 06:54 (10:54 UTC)

תחזית

הדו"ח נערך לפני 6 שעות ו 3דקות, בשעה 04:51 UTC
תחזית בתוקף מ 24 ב 06 UTC עד 25 ב 06 UTC
רוח 4קשר מכיוון מזרח/צפון-מזרח
ראות 10 קילומטר או יותר
מעונן בגובה 2000רגל
יעשה מ
24 ב 15 UTC עד 24 ב 17 UTC
רוח 12קשר מכיוון דרום/דרום-מערב
עננים פזורים בגובה 3000רגל
יעשה מ
24 ב 22 UTC עד 25 ב 00 UTC
רוח 4קשר מכיוון דרום/דרום-מערב
יעשה מ
25 ב 00 UTC עד 25 ב 02 UTC
מעונן בגובה 2000רגל

TAF: SCAR 240451Z 2406/2506 06004KT 9999 OVC020 TN16/2408Z TX18/2418Z BECMG 2415/2417 21012KT SCT030 BECMG 2422/2500 21004KT BECMG 2500/2502 OVC020

תצפיות ותחזיות מזג אוויר לגבי יותר מ- 4,000 שדות תעופה ברחבי העולם. דוחות METAR ו- TAF.

התחנות הזמינות מסומנות בנקודות צהובות ואדומות על גבי המפה.

העבר את העכבר לנקודה הצבעונית על מנת לראות את שם התחנה.

לאחר מכן, לחץ כדי לראות את תוכן ואת תחזיות מזג האוויר.

כדי לשנות את המפה: לחץ על הכפתורים הירוקים עם הפלוס השחור כדי להתקרב; על הכפתור הירוק עם המקף כדי להתרחק; או בחיצים הירוקים למפות סמוכות.


METAR-TAF: